City of Sunrise, Florida
Current Conditions -  °F | °C
As of 12:53 AM on Wednesday 28 Jan 2015 (Local Time) from KFXE Reporting Station
Broken Clouds Broken Clouds  
Wind Chill: 57°   Ceiling: 4700
Heat Index: 57°   Visibility: 10mi
Dew Point: 54°   Wind: 3mph
Humidity: 89%   Direction: 280°W
Pressure: 30.04"   Gusts: NA
Location:  26.1495°N, 80.2263°W
Report Text: KFXE 280553Z 28003KT 10SM SCT033 BKN047 14/12 A3004 RMK AO2 SLP174 T01390122 10172 20133 58001
Loading
Personal Weather Stations






























Interactive Weather Map New forecast layout! Learn more

10-Day Weather Forecast

Advertisements
Track Severe Weather on mobile